sensor_id;sensor_type;location;lat;lon;timestamp;P1;durP1;ratioP1;P2;durP2;ratioP2
68921;SDS011;55959;51.244;5.724;2022-07-11T00:02:04;2.33;;;1.42;;
68921;SDS011;55959;51.244;5.724;2022-07-11T00:04:31;3.25;;;1.10;;
68921;SDS011;55959;51.244;5.724;2022-07-11T00:06:58;2.72;;;1.25;;
68921;SDS011;55959;51.244;5.724;2022-07-11T00:09:25;2.40;;;1.25;;
68921;SDS011;55959;51.244;5.724;2022-07-11T00:11:52;1.60;;;1.40;;
68921;SDS011;55959;51.244;5.724;2022-07-11T00:14:18;1.83;;;1.10;;
68921;SDS011;55959;51.244;5.724;2022-07-11T00:16:45;1.50;;;1.10;;
68921;SDS011;55959;51.244;5.724;2022-07-11T00:19:11;1.40;;;1.20;;
68921;SDS011;55959;51.244;5.724;2022-07-11T00:21:36;1.75;;;1.55;;
68921;SDS011;55959;51.244;5.724;2022-07-11T00:24:03;2.85;;;1.63;;
68921;SDS011;55959;51.244;5.724;2022-07-11T00:26:29;2.22;;;1.58;;
68921;SDS011;55959;51.244;5.724;2022-07-11T00:28:55;2.00;;;1.60;;
68921;SDS011;55959;51.244;5.724;2022-07-11T00:31:21;2.13;;;1.48;;
68921;SDS011;55959;51.244;5.724;2022-07-11T00:33:47;1.38;;;1.27;;
68921;SDS011;55959;51.244;5.724;2022-07-11T00:36:14;2.53;;;1.75;;
68921;SDS011;55959;51.244;5.724;2022-07-11T00:38:40;1.50;;;1.33;;
68921;SDS011;55959;51.244;5.724;2022-07-11T00:41:06;2.25;;;1.65;;
68921;SDS011;55959;51.244;5.724;2022-07-11T00:43:32;1.92;;;1.40;;
68921;SDS011;55959;51.244;5.724;2022-07-11T00:46:01;1.90;;;1.33;;
68921;SDS011;55959;51.244;5.724;2022-07-11T00:48:28;1.85;;;1.58;;
68921;SDS011;55959;51.244;5.724;2022-07-11T00:50:55;2.53;;;1.35;;
68921;SDS011;55959;51.244;5.724;2022-07-11T00:53:22;1.73;;;1.50;;
68921;SDS011;55959;51.244;5.724;2022-07-11T00:55:48;1.70;;;1.50;;
68921;SDS011;55959;51.244;5.724;2022-07-11T00:58:20;3.05;;;1.58;;
68921;SDS011;55959;51.244;5.724;2022-07-11T01:00:46;1.70;;;1.20;;
68921;SDS011;55959;51.244;5.724;2022-07-11T01:03:13;2.78;;;1.83;;
68921;SDS011;55959;51.244;5.724;2022-07-11T01:05:39;2.65;;;1.55;;
68921;SDS011;55959;51.244;5.724;2022-07-11T01:08:05;2.75;;;1.58;;
68921;SDS011;55959;51.244;5.724;2022-07-11T01:10:31;3.50;;;1.52;;
68921;SDS011;55959;51.244;5.724;2022-07-11T01:12:57;2.13;;;1.60;;
68921;SDS011;55959;51.244;5.724;2022-07-11T01:15:23;2.42;;;1.58;;
68921;SDS011;55959;51.244;5.724;2022-07-11T01:17:49;1.40;;;1.30;;
68921;SDS011;55959;51.244;5.724;2022-07-11T01:20:19;2.58;;;1.42;;
68921;SDS011;55959;51.244;5.724;2022-07-11T01:22:55;1.80;;;1.40;;
68921;SDS011;55959;51.244;5.724;2022-07-11T01:25:28;2.17;;;1.45;;
68921;SDS011;55959;51.244;5.724;2022-07-11T01:30:28;2.03;;;1.55;;
68921;SDS011;55959;51.244;5.724;2022-07-11T01:32:56;2.95;;;2.00;;
68921;SDS011;55959;51.244;5.724;2022-07-11T01:35:23;2.20;;;1.75;;
68921;SDS011;55959;51.244;5.724;2022-07-11T01:37:49;1.90;;;1.42;;
68921;SDS011;55959;51.244;5.724;2022-07-11T01:40:15;6.60;;;1.58;;
68921;SDS011;55959;51.244;5.724;2022-07-11T01:42:42;2.20;;;1.27;;
68921;SDS011;55959;51.244;5.724;2022-07-11T01:45:08;2.47;;;1.77;;
68921;SDS011;55959;51.244;5.724;2022-07-11T01:47:35;2.42;;;1.60;;
68921;SDS011;55959;51.244;5.724;2022-07-11T01:50:02;1.63;;;1.48;;
68921;SDS011;55959;51.244;5.724;2022-07-11T01:52:28;2.33;;;1.52;;
68921;SDS011;55959;51.244;5.724;2022-07-11T01:54:54;2.22;;;1.58;;
68921;SDS011;55959;51.244;5.724;2022-07-11T01:57:20;3.70;;;1.70;;
68921;SDS011;55959;51.244;5.724;2022-07-11T01:59:46;3.42;;;2.00;;
68921;SDS011;55959;51.244;5.724;2022-07-11T02:02:12;3.13;;;1.92;;
68921;SDS011;55959;51.244;5.724;2022-07-11T02:04:38;2.60;;;1.73;;
68921;SDS011;55959;51.244;5.724;2022-07-11T02:07:05;2.92;;;2.00;;
68921;SDS011;55959;51.244;5.724;2022-07-11T02:09:31;2.22;;;1.70;;
68921;SDS011;55959;51.244;5.724;2022-07-11T02:11:56;1.77;;;1.63;;
68921;SDS011;55959;51.244;5.724;2022-07-11T02:14:22;2.90;;;1.90;;
68921;SDS011;55959;51.244;5.724;2022-07-11T02:16:48;2.15;;;1.95;;
68921;SDS011;55959;51.244;5.724;2022-07-11T02:19:14;2.47;;;1.65;;
68921;SDS011;55959;51.244;5.724;2022-07-11T02:21:40;3.65;;;1.92;;
68921;SDS011;55959;51.244;5.724;2022-07-11T02:24:07;2.50;;;1.90;;
68921;SDS011;55959;51.244;5.724;2022-07-11T02:26:33;1.95;;;1.77;;
68921;SDS011;55959;51.244;5.724;2022-07-11T02:29:00;4.50;;;2.17;;
68921;SDS011;55959;51.244;5.724;2022-07-11T02:31:26;4.95;;;2.13;;
68921;SDS011;55959;51.244;5.724;2022-07-11T02:33:52;4.00;;;2.50;;
68921;SDS011;55959;51.244;5.724;2022-07-11T02:36:18;2.40;;;1.80;;
68921;SDS011;55959;51.244;5.724;2022-07-11T02:38:44;2.72;;;2.03;;
68921;SDS011;55959;51.244;5.724;2022-07-11T02:41:09;2.97;;;2.08;;
68921;SDS011;55959;51.244;5.724;2022-07-11T02:43:35;2.13;;;1.92;;
68921;SDS011;55959;51.244;5.724;2022-07-11T02:46:01;2.47;;;1.95;;
68921;SDS011;55959;51.244;5.724;2022-07-11T02:48:27;2.38;;;2.10;;
68921;SDS011;55959;51.244;5.724;2022-07-11T02:50:53;2.42;;;2.05;;
68921;SDS011;55959;51.244;5.724;2022-07-11T02:53:18;2.80;;;2.15;;
68921;SDS011;55959;51.244;5.724;2022-07-11T02:55:44;3.17;;;2.05;;
68921;SDS011;55959;51.244;5.724;2022-07-11T02:58:10;2.20;;;2.00;;
68921;SDS011;55959;51.244;5.724;2022-07-11T03:00:36;2.50;;;2.08;;
68921;SDS011;55959;51.244;5.724;2022-07-11T03:03:02;3.03;;;2.25;;
68921;SDS011;55959;51.244;5.724;2022-07-11T03:05:28;3.30;;;2.63;;
68921;SDS011;55959;51.244;5.724;2022-07-11T03:07:54;2.83;;;2.30;;
68921;SDS011;55959;51.244;5.724;2022-07-11T03:10:20;2.83;;;2.13;;
68921;SDS011;55959;51.244;5.724;2022-07-11T03:12:48;2.33;;;2.03;;
68921;SDS011;55959;51.244;5.724;2022-07-11T03:15:14;4.38;;;2.38;;
68921;SDS011;55959;51.244;5.724;2022-07-11T03:17:40;3.92;;;2.63;;
68921;SDS011;55959;51.244;5.724;2022-07-11T03:20:06;4.03;;;2.63;;
68921;SDS011;55959;51.244;5.724;2022-07-11T03:22:33;2.67;;;2.47;;
68921;SDS011;55959;51.244;5.724;2022-07-11T03:25:00;2.67;;;2.42;;
68921;SDS011;55959;51.244;5.724;2022-07-11T03:27:28;3.35;;;2.83;;
68921;SDS011;55959;51.244;5.724;2022-07-11T03:29:54;2.72;;;2.40;;
68921;SDS011;55959;51.244;5.724;2022-07-11T03:32:19;4.45;;;2.65;;
68921;SDS011;55959;51.244;5.724;2022-07-11T03:34:46;2.65;;;2.22;;
68921;SDS011;55959;51.244;5.724;2022-07-11T03:37:30;3.70;;;2.60;;
68921;SDS011;55959;51.244;5.724;2022-07-11T03:39:56;2.85;;;2.53;;
68921;SDS011;55959;51.244;5.724;2022-07-11T03:42:23;3.05;;;2.75;;
68921;SDS011;55959;51.244;5.724;2022-07-11T03:44:49;2.88;;;2.58;;
68921;SDS011;55959;51.244;5.724;2022-07-11T03:47:16;3.38;;;2.50;;
68921;SDS011;55959;51.244;5.724;2022-07-11T03:49:42;3.13;;;2.70;;
68921;SDS011;55959;51.244;5.724;2022-07-11T03:52:08;3.03;;;2.70;;
68921;SDS011;55959;51.244;5.724;2022-07-11T03:54:34;3.75;;;3.22;;
68921;SDS011;55959;51.244;5.724;2022-07-11T03:57:00;3.55;;;2.80;;
68921;SDS011;55959;51.244;5.724;2022-07-11T03:59:27;4.47;;;3.08;;
68921;SDS011;55959;51.244;5.724;2022-07-11T04:01:53;3.15;;;2.85;;
68921;SDS011;55959;51.244;5.724;2022-07-11T04:04:18;3.85;;;2.53;;
68921;SDS011;55959;51.244;5.724;2022-07-11T04:06:44;3.25;;;2.80;;
68921;SDS011;55959;51.244;5.724;2022-07-11T04:09:10;2.83;;;2.40;;
68921;SDS011;55959;51.244;5.724;2022-07-11T04:11:36;3.28;;;2.97;;
68921;SDS011;55959;51.244;5.724;2022-07-11T04:14:02;2.97;;;2.72;;
68921;SDS011;55959;51.244;5.724;2022-07-11T04:16:28;3.70;;;2.80;;
68921;SDS011;55959;51.244;5.724;2022-07-11T04:18:53;3.42;;;2.90;;
68921;SDS011;55959;51.244;5.724;2022-07-11T04:21:19;4.80;;;3.03;;
68921;SDS011;55959;51.244;5.724;2022-07-11T04:23:45;3.47;;;2.88;;
68921;SDS011;55959;51.244;5.724;2022-07-11T04:26:11;2.72;;;2.53;;
68921;SDS011;55959;51.244;5.724;2022-07-11T04:28:36;3.10;;;2.55;;
68921;SDS011;55959;51.244;5.724;2022-07-11T04:31:02;3.42;;;2.65;;
68921;SDS011;55959;51.244;5.724;2022-07-11T04:33:28;3.53;;;2.55;;
68921;SDS011;55959;51.244;5.724;2022-07-11T04:35:54;2.67;;;2.42;;
68921;SDS011;55959;51.244;5.724;2022-07-11T04:38:20;3.30;;;2.47;;
68921;SDS011;55959;51.244;5.724;2022-07-11T04:40:49;3.75;;;2.78;;
68921;SDS011;55959;51.244;5.724;2022-07-11T04:43:15;3.03;;;2.72;;
68921;SDS011;55959;51.244;5.724;2022-07-11T04:45:41;3.47;;;2.20;;
68921;SDS011;55959;51.244;5.724;2022-07-11T04:48:07;3.17;;;2.40;;
68921;SDS011;55959;51.244;5.724;2022-07-11T04:50:34;2.65;;;2.40;;
68921;SDS011;55959;51.244;5.724;2022-07-11T04:52:59;4.60;;;2.28;;
68921;SDS011;55959;51.244;5.724;2022-07-11T04:55:25;2.38;;;2.00;;
68921;SDS011;55959;51.244;5.724;2022-07-11T04:57:51;4.07;;;2.35;;
68921;SDS011;55959;51.244;5.724;2022-07-11T05:00:17;2.25;;;2.05;;
68921;SDS011;55959;51.244;5.724;2022-07-11T05:02:44;2.65;;;2.10;;
68921;SDS011;55959;51.244;5.724;2022-07-11T05:05:11;2.60;;;2.15;;
68921;SDS011;55959;51.244;5.724;2022-07-11T05:07:38;2.97;;;2.05;;
68921;SDS011;55959;51.244;5.724;2022-07-11T05:10:04;3.80;;;2.05;;
68921;SDS011;55959;51.244;5.724;2022-07-11T05:12:30;2.78;;;1.98;;
68921;SDS011;55959;51.244;5.724;2022-07-11T05:14:56;2.60;;;1.95;;
68921;SDS011;55959;51.244;5.724;2022-07-11T05:17:23;3.63;;;2.22;;
68921;SDS011;55959;51.244;5.724;2022-07-11T05:19:51;2.45;;;1.80;;
68921;SDS011;55959;51.244;5.724;2022-07-11T05:22:16;2.70;;;1.70;;
68921;SDS011;55959;51.244;5.724;2022-07-11T05:24:42;2.28;;;1.80;;
68921;SDS011;55959;51.244;5.724;2022-07-11T05:27:08;2.70;;;1.80;;
68921;SDS011;55959;51.244;5.724;2022-07-11T05:29:34;1.98;;;1.30;;
68921;SDS011;55959;51.244;5.724;2022-07-11T05:31:59;1.70;;;1.30;;
68921;SDS011;55959;51.244;5.724;2022-07-11T05:34:25;3.53;;;1.50;;
68921;SDS011;55959;51.244;5.724;2022-07-11T05:36:51;2.10;;;1.55;;
68921;SDS011;55959;51.244;5.724;2022-07-11T05:39:18;1.58;;;1.15;;
68921;SDS011;55959;51.244;5.724;2022-07-11T05:41:44;1.83;;;1.40;;
68921;SDS011;55959;51.244;5.724;2022-07-11T05:44:10;2.40;;;1.17;;
68921;SDS011;55959;51.244;5.724;2022-07-11T05:46:35;2.30;;;1.50;;
68921;SDS011;55959;51.244;5.724;2022-07-11T05:49:05;1.58;;;1.30;;
68921;SDS011;55959;51.244;5.724;2022-07-11T05:51:34;1.48;;;1.05;;
68921;SDS011;55959;51.244;5.724;2022-07-11T05:54:01;2.88;;;1.20;;
68921;SDS011;55959;51.244;5.724;2022-07-11T05:56:27;1.25;;;1.15;;
68921;SDS011;55959;51.244;5.724;2022-07-11T05:58:54;1.75;;;1.10;;
68921;SDS011;55959;51.244;5.724;2022-07-11T06:01:20;1.90;;;1.20;;
68921;SDS011;55959;51.244;5.724;2022-07-11T06:03:47;1.95;;;0.95;;
68921;SDS011;55959;51.244;5.724;2022-07-11T06:06:13;2.03;;;1.40;;
68921;SDS011;55959;51.244;5.724;2022-07-11T06:08:39;1.10;;;0.90;;
68921;SDS011;55959;51.244;5.724;2022-07-11T06:11:09;1.63;;;1.10;;
68921;SDS011;55959;51.244;5.724;2022-07-11T06:13:38;2.25;;;1.20;;
68921;SDS011;55959;51.244;5.724;2022-07-11T06:16:05;2.08;;;1.33;;
68921;SDS011;55959;51.244;5.724;2022-07-11T06:18:32;2.53;;;1.50;;
68921;SDS011;55959;51.244;5.724;2022-07-11T06:20:58;2.40;;;1.65;;
68921;SDS011;55959;51.244;5.724;2022-07-11T06:23:24;2.10;;;1.30;;
68921;SDS011;55959;51.244;5.724;2022-07-11T06:25:50;1.70;;;1.00;;
68921;SDS011;55959;51.244;5.724;2022-07-11T06:28:16;1.45;;;1.10;;
68921;SDS011;55959;51.244;5.724;2022-07-11T06:30:41;1.75;;;1.13;;
68921;SDS011;55959;51.244;5.724;2022-07-11T06:33:07;1.23;;;1.13;;
68921;SDS011;55959;51.244;5.724;2022-07-11T06:35:33;1.88;;;1.08;;
68921;SDS011;55959;51.244;5.724;2022-07-11T06:37:59;1.50;;;1.10;;
68921;SDS011;55959;51.244;5.724;2022-07-11T06:40:25;2.28;;;1.10;;
68921;SDS011;55959;51.244;5.724;2022-07-11T06:42:51;1.38;;;1.00;;
68921;SDS011;55959;51.244;5.724;2022-07-11T06:45:17;2.05;;;1.20;;
68921;SDS011;55959;51.244;5.724;2022-07-11T06:47:43;1.40;;;1.10;;
68921;SDS011;55959;51.244;5.724;2022-07-11T06:50:08;2.00;;;1.02;;
68921;SDS011;55959;51.244;5.724;2022-07-11T06:52:34;1.45;;;0.90;;
68921;SDS011;55959;51.244;5.724;2022-07-11T06:55:00;2.00;;;1.30;;
68921;SDS011;55959;51.244;5.724;2022-07-11T06:57:27;0.93;;;0.80;;
68921;SDS011;55959;51.244;5.724;2022-07-11T06:59:53;1.40;;;1.00;;
68921;SDS011;55959;51.244;5.724;2022-07-11T07:02:19;1.70;;;1.02;;
68921;SDS011;55959;51.244;5.724;2022-07-11T07:04:45;1.70;;;0.90;;
68921;SDS011;55959;51.244;5.724;2022-07-11T07:07:11;1.00;;;0.90;;
68921;SDS011;55959;51.244;5.724;2022-07-11T07:09:36;1.27;;;0.90;;
68921;SDS011;55959;51.244;5.724;2022-07-11T07:12:02;1.10;;;1.00;;
68921;SDS011;55959;51.244;5.724;2022-07-11T07:14:28;1.42;;;1.08;;
68921;SDS011;55959;51.244;5.724;2022-07-11T07:16:54;1.52;;;1.00;;
68921;SDS011;55959;51.244;5.724;2022-07-11T07:19:19;1.33;;;0.90;;
68921;SDS011;55959;51.244;5.724;2022-07-11T07:21:46;1.40;;;0.90;;
68921;SDS011;55959;51.244;5.724;2022-07-11T07:24:12;1.23;;;1.00;;
68921;SDS011;55959;51.244;5.724;2022-07-11T07:26:38;2.17;;;0.98;;
68921;SDS011;55959;51.244;5.724;2022-07-11T07:29:04;1.20;;;1.10;;
68921;SDS011;55959;51.244;5.724;2022-07-11T07:31:29;1.70;;;0.90;;
68921;SDS011;55959;51.244;5.724;2022-07-11T07:33:55;2.20;;;1.10;;
68921;SDS011;55959;51.244;5.724;2022-07-11T07:36:21;1.65;;;1.08;;
68921;SDS011;55959;51.244;5.724;2022-07-11T07:38:47;1.15;;;1.05;;
68921;SDS011;55959;51.244;5.724;2022-07-11T07:41:13;1.23;;;1.10;;
68921;SDS011;55959;51.244;5.724;2022-07-11T07:43:40;1.73;;;1.00;;
68921;SDS011;55959;51.244;5.724;2022-07-11T07:46:09;1.55;;;0.82;;
68921;SDS011;55959;51.244;5.724;2022-07-11T07:48:35;1.80;;;0.90;;
68921;SDS011;55959;51.244;5.724;2022-07-11T07:51:03;1.85;;;0.70;;
68921;SDS011;55959;51.244;5.724;2022-07-11T07:53:29;1.48;;;0.88;;
68921;SDS011;55959;51.244;5.724;2022-07-11T07:55:55;1.30;;;0.80;;
68921;SDS011;55959;51.244;5.724;2022-07-11T07:58:21;1.77;;;0.82;;
68921;SDS011;55959;51.244;5.724;2022-07-11T08:00:46;0.80;;;0.70;;
68921;SDS011;55959;51.244;5.724;2022-07-11T08:03:31;0.60;;;0.60;;
68921;SDS011;55959;51.244;5.724;2022-07-11T08:05:57;0.65;;;0.40;;
68921;SDS011;55959;51.244;5.724;2022-07-11T08:08:23;0.57;;;0.55;;
68921;SDS011;55959;51.244;5.724;2022-07-11T08:10:48;0.50;;;0.50;;
68921;SDS011;55959;51.244;5.724;2022-07-11T08:13:15;0.82;;;0.50;;
68921;SDS011;55959;51.244;5.724;2022-07-11T08:15:41;0.77;;;0.73;;
68921;SDS011;55959;51.244;5.724;2022-07-11T08:18:07;0.90;;;0.60;;
68921;SDS011;55959;51.244;5.724;2022-07-11T08:20:33;1.23;;;0.80;;
68921;SDS011;55959;51.244;5.724;2022-07-11T08:22:59;0.63;;;0.60;;
68921;SDS011;55959;51.244;5.724;2022-07-11T08:25:27;1.00;;;0.70;;
68921;SDS011;55959;51.244;5.724;2022-07-11T08:27:53;1.35;;;0.68;;
68921;SDS011;55959;51.244;5.724;2022-07-11T08:30:18;0.77;;;0.75;;
68921;SDS011;55959;51.244;5.724;2022-07-11T08:32:44;1.67;;;0.90;;
68921;SDS011;55959;51.244;5.724;2022-07-11T08:35:10;0.88;;;0.68;;
68921;SDS011;55959;51.244;5.724;2022-07-11T08:37:36;1.15;;;0.93;;
68921;SDS011;55959;51.244;5.724;2022-07-11T08:40:02;1.05;;;0.95;;
68921;SDS011;55959;51.244;5.724;2022-07-11T08:42:29;1.02;;;0.90;;
68921;SDS011;55959;51.244;5.724;2022-07-11T08:44:55;1.15;;;0.80;;
68921;SDS011;55959;51.244;5.724;2022-07-11T08:47:22;1.83;;;1.15;;
68921;SDS011;55959;51.244;5.724;2022-07-11T08:49:49;1.00;;;0.90;;
68921;SDS011;55959;51.244;5.724;2022-07-11T08:52:16;0.90;;;0.73;;
68921;SDS011;55959;51.244;5.724;2022-07-11T08:54:44;1.30;;;0.93;;
68921;SDS011;55959;51.244;5.724;2022-07-11T08:57:11;1.05;;;0.60;;
68921;SDS011;55959;51.244;5.724;2022-07-11T08:59:38;0.82;;;0.82;;
68921;SDS011;55959;51.244;5.724;2022-07-11T09:02:09;0.77;;;0.70;;
68921;SDS011;55959;51.244;5.724;2022-07-11T09:04:36;2.30;;;0.88;;
68921;SDS011;55959;51.244;5.724;2022-07-11T09:07:02;1.23;;;0.90;;
68921;SDS011;55959;51.244;5.724;2022-07-11T09:09:29;0.70;;;0.70;;
68921;SDS011;55959;51.244;5.724;2022-07-11T09:11:56;1.13;;;1.00;;
68921;SDS011;55959;51.244;5.724;2022-07-11T09:19:26;1.23;;;1.02;;
68921;SDS011;55959;51.244;5.724;2022-07-11T09:21:55;1.02;;;0.75;;
68921;SDS011;55959;51.244;5.724;2022-07-11T09:24:58;1.45;;;0.93;;
68921;SDS011;55959;51.244;5.724;2022-07-11T09:33:00;1.08;;;0.90;;
68921;SDS011;55959;51.244;5.724;2022-07-11T09:35:28;1.83;;;1.23;;
68921;SDS011;55959;51.244;5.724;2022-07-11T09:37:57;2.40;;;1.40;;
68921;SDS011;55959;51.244;5.724;2022-07-11T09:40:23;2.20;;;1.33;;
68921;SDS011;55959;51.244;5.724;2022-07-11T09:42:54;1.83;;;1.45;;
68921;SDS011;55959;51.244;5.724;2022-07-11T09:45:22;2.45;;;1.60;;
68921;SDS011;55959;51.244;5.724;2022-07-11T09:47:51;1.92;;;1.80;;
68921;SDS011;55959;51.244;5.724;2022-07-11T09:50:20;2.10;;;1.90;;
68921;SDS011;55959;51.244;5.724;2022-07-11T09:55:24;2.75;;;1.70;;
68921;SDS011;55959;51.244;5.724;2022-07-11T09:57:51;3.05;;;2.33;;
68921;SDS011;55959;51.244;5.724;2022-07-11T10:00:17;2.83;;;2.17;;
68921;SDS011;55959;51.244;5.724;2022-07-11T10:02:43;2.92;;;2.47;;
68921;SDS011;55959;51.244;5.724;2022-07-11T10:05:10;2.70;;;1.85;;
68921;SDS011;55959;51.244;5.724;2022-07-11T10:07:36;2.30;;;2.10;;
68921;SDS011;55959;51.244;5.724;2022-07-11T10:10:03;2.40;;;2.20;;
68921;SDS011;55959;51.244;5.724;2022-07-11T10:12:32;2.95;;;1.92;;
68921;SDS011;55959;51.244;5.724;2022-07-11T10:15:02;2.20;;;2.00;;
68921;SDS011;55959;51.244;5.724;2022-07-11T10:20:11;2.05;;;1.90;;
68921;SDS011;55959;51.244;5.724;2022-07-11T10:23:36;1.88;;;1.23;;
68921;SDS011;55959;51.244;5.724;2022-07-11T10:26:36;2.10;;;1.90;;
68921;SDS011;55959;51.244;5.724;2022-07-11T10:29:38;1.40;;;1.27;;
68921;SDS011;55959;51.244;5.724;2022-07-11T10:32:16;2.35;;;1.60;;
68921;SDS011;55959;51.244;5.724;2022-07-11T10:34:42;1.70;;;1.60;;
68921;SDS011;55959;51.244;5.724;2022-07-11T10:37:09;1.92;;;1.50;;
68921;SDS011;55959;51.244;5.724;2022-07-11T10:39:37;1.50;;;1.40;;
68921;SDS011;55959;51.244;5.724;2022-07-11T10:42:06;2.15;;;1.88;;
68921;SDS011;55959;51.244;5.724;2022-07-11T10:44:47;1.52;;;1.42;;
68921;SDS011;55959;51.244;5.724;2022-07-11T10:50:10;1.48;;;1.20;;
68921;SDS011;55959;51.244;5.724;2022-07-11T10:52:55;2.67;;;1.58;;
68921;SDS011;55959;51.244;5.724;2022-07-11T10:55:35;1.98;;;1.48;;
68921;SDS011;55959;51.244;5.724;2022-07-11T11:01:12;1.42;;;1.23;;
68921;SDS011;55959;51.244;5.724;2022-07-11T11:03:40;1.23;;;1.13;;
68921;SDS011;55959;51.244;5.724;2022-07-11T11:06:08;1.05;;;0.98;;
68921;SDS011;55959;51.244;5.724;2022-07-11T11:16:49;1.73;;;1.05;;
68921;SDS011;55959;51.244;5.724;2022-07-11T11:22:20;1.40;;;1.00;;
68921;SDS011;55959;51.244;5.724;2022-07-11T11:24:48;1.13;;;1.00;;
68921;SDS011;55959;51.244;5.724;2022-07-11T11:27:20;1.25;;;1.15;;
68921;SDS011;55959;51.244;5.724;2022-07-11T11:29:48;1.00;;;0.90;;
68921;SDS011;55959;51.244;5.724;2022-07-11T11:32:17;1.13;;;0.85;;
68921;SDS011;55959;51.244;5.724;2022-07-11T11:34:44;1.05;;;0.80;;
68921;SDS011;55959;51.244;5.724;2022-07-11T11:37:10;1.10;;;1.00;;
68921;SDS011;55959;51.244;5.724;2022-07-11T11:39:36;0.90;;;0.90;;
68921;SDS011;55959;51.244;5.724;2022-07-11T11:42:04;0.80;;;0.80;;
68921;SDS011;55959;51.244;5.724;2022-07-11T11:44:50;1.08;;;0.90;;
68921;SDS011;55959;51.244;5.724;2022-07-11T11:47:22;0.80;;;0.60;;
68921;SDS011;55959;51.244;5.724;2022-07-11T11:49:49;1.60;;;0.88;;
68921;SDS011;55959;51.244;5.724;2022-07-11T11:52:15;2.25;;;1.55;;
68921;SDS011;55959;51.244;5.724;2022-07-11T11:54:42;1.48;;;1.13;;
68921;SDS011;55959;51.244;5.724;2022-07-11T11:57:08;1.20;;;1.00;;
68921;SDS011;55959;51.244;5.724;2022-07-11T11:59:39;1.33;;;1.23;;
68921;SDS011;55959;51.244;5.724;2022-07-11T12:02:06;1.10;;;1.00;;
68921;SDS011;55959;51.244;5.724;2022-07-11T12:04:34;0.95;;;0.95;;
68921;SDS011;55959;51.244;5.724;2022-07-11T12:07:01;0.80;;;0.80;;
68921;SDS011;55959;51.244;5.724;2022-07-11T12:09:28;1.80;;;1.10;;
68921;SDS011;55959;51.244;5.724;2022-07-11T12:12:19;2.05;;;1.50;;
68921;SDS011;55959;51.244;5.724;2022-07-11T12:15:06;1.30;;;1.05;;
68921;SDS011;55959;51.244;5.724;2022-07-11T12:17:49;1.13;;;0.98;;
68921;SDS011;55959;51.244;5.724;2022-07-11T12:20:30;1.20;;;1.10;;
68921;SDS011;55959;51.244;5.724;2022-07-11T12:23:08;1.35;;;0.95;;
68921;SDS011;55959;51.244;5.724;2022-07-11T12:25:36;0.90;;;0.88;;
68921;SDS011;55959;51.244;5.724;2022-07-11T12:28:03;1.45;;;1.20;;
68921;SDS011;55959;51.244;5.724;2022-07-11T12:30:32;1.17;;;1.00;;
68921;SDS011;55959;51.244;5.724;2022-07-11T12:33:05;1.23;;;1.13;;
68921;SDS011;55959;51.244;5.724;2022-07-11T12:35:54;1.88;;;1.45;;
68921;SDS011;55959;51.244;5.724;2022-07-11T12:38:48;1.30;;;1.20;;
68921;SDS011;55959;51.244;5.724;2022-07-11T12:41:16;1.40;;;1.30;;
68921;SDS011;55959;51.244;5.724;2022-07-11T12:43:49;1.83;;;1.73;;
68921;SDS011;55959;51.244;5.724;2022-07-11T12:46:35;1.50;;;1.40;;
68921;SDS011;55959;51.244;5.724;2022-07-11T12:49:03;1.70;;;1.55;;
68921;SDS011;55959;51.244;5.724;2022-07-11T12:51:35;2.20;;;2.00;;
68921;SDS011;55959;51.244;5.724;2022-07-11T12:54:07;2.17;;;1.98;;
68921;SDS011;55959;51.244;5.724;2022-07-11T12:56:34;2.13;;;1.95;;
68921;SDS011;55959;51.244;5.724;2022-07-11T12:59:01;1.90;;;1.80;;
68921;SDS011;55959;51.244;5.724;2022-07-11T13:01:29;2.10;;;1.90;;
68921;SDS011;55959;51.244;5.724;2022-07-11T13:03:56;1.77;;;1.67;;
68921;SDS011;55959;51.244;5.724;2022-07-11T13:06:22;1.75;;;1.60;;
68921;SDS011;55959;51.244;5.724;2022-07-11T13:09:07;2.67;;;2.30;;
68921;SDS011;55959;51.244;5.724;2022-07-11T13:11:34;2.35;;;2.15;;
68921;SDS011;55959;51.244;5.724;2022-07-11T13:14:00;3.20;;;2.60;;
68921;SDS011;55959;51.244;5.724;2022-07-11T13:16:26;3.17;;;2.63;;
68921;SDS011;55959;51.244;5.724;2022-07-11T13:18:52;2.65;;;2.45;;
68921;SDS011;55959;51.244;5.724;2022-07-11T13:21:19;2.13;;;1.92;;
68921;SDS011;55959;51.244;5.724;2022-07-11T13:23:45;2.08;;;1.90;;
68921;SDS011;55959;51.244;5.724;2022-07-11T13:26:12;2.10;;;1.52;;
68921;SDS011;55959;51.244;5.724;2022-07-11T13:28:38;3.22;;;1.95;;
68921;SDS011;55959;51.244;5.724;2022-07-11T13:31:04;2.78;;;2.00;;
68921;SDS011;55959;51.244;5.724;2022-07-11T13:33:31;1.92;;;1.83;;
68921;SDS011;55959;51.244;5.724;2022-07-11T13:35:57;2.20;;;2.00;;
68921;SDS011;55959;51.244;5.724;2022-07-11T13:38:23;2.75;;;2.35;;
68921;SDS011;55959;51.244;5.724;2022-07-11T13:40:49;3.10;;;2.80;;
68921;SDS011;55959;51.244;5.724;2022-07-11T13:43:16;3.95;;;3.55;;
68921;SDS011;55959;51.244;5.724;2022-07-11T13:45:42;7.60;;;7.00;;
68921;SDS011;55959;51.244;5.724;2022-07-11T13:48:12;4.45;;;4.05;;
68921;SDS011;55959;51.244;5.724;2022-07-11T13:50:39;2.80;;;2.60;;
68921;SDS011;55959;51.244;5.724;2022-07-11T13:53:05;2.70;;;2.50;;
68921;SDS011;55959;51.244;5.724;2022-07-11T13:55:31;3.42;;;3.13;;
68921;SDS011;55959;51.244;5.724;2022-07-11T13:57:57;2.67;;;2.47;;
68921;SDS011;55959;51.244;5.724;2022-07-11T14:00:25;3.03;;;2.50;;
68921;SDS011;55959;51.244;5.724;2022-07-11T14:02:54;2.38;;;2.17;;
68921;SDS011;55959;51.244;5.724;2022-07-11T14:05:20;2.92;;;2.55;;
68921;SDS011;55959;51.244;5.724;2022-07-11T14:07:46;3.90;;;3.25;;
68921;SDS011;55959;51.244;5.724;2022-07-11T14:10:13;3.58;;;3.05;;
68921;SDS011;55959;51.244;5.724;2022-07-11T14:12:39;5.65;;;4.40;;
68921;SDS011;55959;51.244;5.724;2022-07-11T14:15:06;3.30;;;3.00;;
68921;SDS011;55959;51.244;5.724;2022-07-11T14:17:33;4.15;;;2.70;;
68921;SDS011;55959;51.244;5.724;2022-07-11T14:20:00;5.63;;;5.10;;
68921;SDS011;55959;51.244;5.724;2022-07-11T14:22:26;3.40;;;3.08;;
68921;SDS011;55959;51.244;5.724;2022-07-11T14:24:52;2.85;;;2.63;;
68921;SDS011;55959;51.244;5.724;2022-07-11T14:27:18;3.30;;;3.00;;
68921;SDS011;55959;51.244;5.724;2022-07-11T14:29:44;2.80;;;2.60;;
68921;SDS011;55959;51.244;5.724;2022-07-11T14:32:13;2.60;;;2.40;;
68921;SDS011;55959;51.244;5.724;2022-07-11T14:34:39;2.35;;;2.15;;
68921;SDS011;55959;51.244;5.724;2022-07-11T14:37:06;2.10;;;1.95;;
68921;SDS011;55959;51.244;5.724;2022-07-11T14:39:31;2.60;;;2.40;;
68921;SDS011;55959;51.244;5.724;2022-07-11T14:41:58;1.80;;;1.70;;
68921;SDS011;55959;51.244;5.724;2022-07-11T14:44:26;1.92;;;1.77;;
68921;SDS011;55959;51.244;5.724;2022-07-11T14:46:52;1.80;;;1.70;;
68921;SDS011;55959;51.244;5.724;2022-07-11T14:49:19;2.30;;;2.10;;
68921;SDS011;55959;51.244;5.724;2022-07-11T14:51:44;2.78;;;2.50;;
68921;SDS011;55959;51.244;5.724;2022-07-11T14:54:10;3.38;;;2.20;;
68921;SDS011;55959;51.244;5.724;2022-07-11T14:56:37;2.33;;;2.13;;
68921;SDS011;55959;51.244;5.724;2022-07-11T14:59:04;2.33;;;2.13;;
68921;SDS011;55959;51.244;5.724;2022-07-11T15:01:31;2.95;;;2.65;;
68921;SDS011;55959;51.244;5.724;2022-07-11T15:03:57;2.88;;;2.63;;
68921;SDS011;55959;51.244;5.724;2022-07-11T15:06:23;3.33;;;2.40;;
68921;SDS011;55959;51.244;5.724;2022-07-11T15:09:09;2.03;;;1.65;;
68921;SDS011;55959;51.244;5.724;2022-07-11T15:11:55;2.03;;;1.88;;
68921;SDS011;55959;51.244;5.724;2022-07-11T15:14:39;1.50;;;1.40;;
68921;SDS011;55959;51.244;5.724;2022-07-11T15:17:05;1.30;;;1.20;;
68921;SDS011;55959;51.244;5.724;2022-07-11T15:19:31;1.30;;;1.20;;
68921;SDS011;55959;51.244;5.724;2022-07-11T15:21:57;1.67;;;1.58;;
68921;SDS011;55959;51.244;5.724;2022-07-11T15:24:22;2.92;;;1.83;;
68921;SDS011;55959;51.244;5.724;2022-07-11T15:26:48;2.45;;;2.25;;
68921;SDS011;55959;51.244;5.724;2022-07-11T15:29:15;2.25;;;2.05;;